sensor_id;sensor_type;location;lat;lon;timestamp;P1;durP1;ratioP1;P2;durP2;ratioP2
50417;SDS011;36346;48.280;14.292;2023-06-22T00:01:23;3.60;;;3.57;;
50417;SDS011;36346;48.280;14.292;2023-06-22T00:03:51;3.72;;;3.68;;
50417;SDS011;36346;48.280;14.292;2023-06-22T00:06:19;3.96;;;3.93;;
50417;SDS011;36346;48.280;14.292;2023-06-22T00:08:48;3.95;;;3.93;;
50417;SDS011;36346;48.280;14.292;2023-06-22T00:11:15;4.14;;;4.11;;
50417;SDS011;36346;48.280;14.292;2023-06-22T00:13:44;4.07;;;4.05;;
50417;SDS011;36346;48.280;14.292;2023-06-22T00:16:12;3.91;;;3.89;;
50417;SDS011;36346;48.280;14.292;2023-06-22T00:18:40;3.90;;;3.86;;
50417;SDS011;36346;48.280;14.292;2023-06-22T00:21:14;4.13;;;4.07;;
50417;SDS011;36346;48.280;14.292;2023-06-22T00:23:42;4.41;;;4.31;;
50417;SDS011;36346;48.280;14.292;2023-06-22T00:26:10;4.26;;;4.19;;
50417;SDS011;36346;48.280;14.292;2023-06-22T00:28:39;3.86;;;3.81;;
50417;SDS011;36346;48.280;14.292;2023-06-22T00:31:07;4.33;;;4.28;;
50417;SDS011;36346;48.280;14.292;2023-06-22T00:33:35;4.72;;;4.69;;
50417;SDS011;36346;48.280;14.292;2023-06-22T00:36:05;4.91;;;4.90;;
50417;SDS011;36346;48.280;14.292;2023-06-22T00:38:37;5.35;;;5.31;;
50417;SDS011;36346;48.280;14.292;2023-06-22T00:41:08;5.02;;;4.97;;
50417;SDS011;36346;48.280;14.292;2023-06-22T00:43:36;4.41;;;4.38;;
50417;SDS011;36346;48.280;14.292;2023-06-22T00:46:04;4.83;;;4.79;;
50417;SDS011;36346;48.280;14.292;2023-06-22T00:48:33;4.72;;;4.69;;
50417;SDS011;36346;48.280;14.292;2023-06-22T00:51:01;4.38;;;4.36;;
50417;SDS011;36346;48.280;14.292;2023-06-22T00:53:29;4.29;;;4.29;;
50417;SDS011;36346;48.280;14.292;2023-06-22T00:56:02;3.99;;;3.99;;
50417;SDS011;36346;48.280;14.292;2023-06-22T00:58:31;4.06;;;4.05;;
50417;SDS011;36346;48.280;14.292;2023-06-22T01:00:59;3.97;;;3.97;;
50417;SDS011;36346;48.280;14.292;2023-06-22T01:03:28;3.88;;;3.87;;
50417;SDS011;36346;48.280;14.292;2023-06-22T01:06:08;4.00;;;3.98;;
50417;SDS011;36346;48.280;14.292;2023-06-22T01:08:44;3.93;;;3.91;;
50417;SDS011;36346;48.280;14.292;2023-06-22T01:16:41;4.27;;;4.25;;
50417;SDS011;36346;48.280;14.292;2023-06-22T01:22:03;3.91;;;3.87;;
50417;SDS011;36346;48.280;14.292;2023-06-22T01:30:01;3.59;;;3.56;;
50417;SDS011;36346;48.280;14.292;2023-06-22T01:32:36;3.45;;;3.40;;
50417;SDS011;36346;48.280;14.292;2023-06-22T01:35:07;3.95;;;3.93;;
50417;SDS011;36346;48.280;14.292;2023-06-22T01:37:37;3.61;;;3.60;;
50417;SDS011;36346;48.280;14.292;2023-06-22T01:40:06;3.51;;;3.49;;
50417;SDS011;36346;48.280;14.292;2023-06-22T01:42:36;3.62;;;3.61;;
50417;SDS011;36346;48.280;14.292;2023-06-22T01:45:07;3.60;;;3.55;;
50417;SDS011;36346;48.280;14.292;2023-06-22T01:47:38;3.57;;;3.52;;
50417;SDS011;36346;48.280;14.292;2023-06-22T01:50:07;3.81;;;3.77;;
50417;SDS011;36346;48.280;14.292;2023-06-22T01:52:35;3.56;;;3.55;;
50417;SDS011;36346;48.280;14.292;2023-06-22T01:55:03;3.36;;;3.34;;
50417;SDS011;36346;48.280;14.292;2023-06-22T01:57:33;3.17;;;3.15;;
50417;SDS011;36346;48.280;14.292;2023-06-22T02:02:32;3.45;;;3.44;;
50417;SDS011;36346;48.280;14.292;2023-06-22T02:05:08;3.23;;;3.22;;
50417;SDS011;36346;48.280;14.292;2023-06-22T02:07:44;3.71;;;3.69;;
50417;SDS011;36346;48.280;14.292;2023-06-22T02:10:16;3.14;;;3.13;;
50417;SDS011;36346;48.280;14.292;2023-06-22T02:12:49;3.34;;;3.33;;
50417;SDS011;36346;48.280;14.292;2023-06-22T02:15:19;3.45;;;3.44;;
50417;SDS011;36346;48.280;14.292;2023-06-22T02:17:53;3.52;;;3.51;;
50417;SDS011;36346;48.280;14.292;2023-06-22T02:20:23;3.56;;;3.55;;
50417;SDS011;36346;48.280;14.292;2023-06-22T02:22:52;3.73;;;3.72;;
50417;SDS011;36346;48.280;14.292;2023-06-22T02:25:20;3.60;;;3.59;;
50417;SDS011;36346;48.280;14.292;2023-06-22T02:27:48;3.45;;;3.43;;
50417;SDS011;36346;48.280;14.292;2023-06-22T02:30:17;3.50;;;3.48;;
50417;SDS011;36346;48.280;14.292;2023-06-22T02:32:45;3.56;;;3.53;;
50417;SDS011;36346;48.280;14.292;2023-06-22T02:35:15;3.34;;;3.33;;
50417;SDS011;36346;48.280;14.292;2023-06-22T02:37:45;3.45;;;3.45;;
50417;SDS011;36346;48.280;14.292;2023-06-22T02:40:14;3.54;;;3.53;;
50417;SDS011;36346;48.280;14.292;2023-06-22T02:42:42;3.34;;;3.34;;
50417;SDS011;36346;48.280;14.292;2023-06-22T02:45:10;3.57;;;3.57;;
50417;SDS011;36346;48.280;14.292;2023-06-22T02:47:38;3.38;;;3.37;;
50417;SDS011;36346;48.280;14.292;2023-06-22T02:50:07;3.25;;;3.25;;
50417;SDS011;36346;48.280;14.292;2023-06-22T02:52:36;3.63;;;3.59;;
50417;SDS011;36346;48.280;14.292;2023-06-22T02:55:04;3.60;;;3.57;;
50417;SDS011;36346;48.280;14.292;2023-06-22T02:57:35;3.55;;;3.55;;
50417;SDS011;36346;48.280;14.292;2023-06-22T03:00:03;4.02;;;4.02;;
50417;SDS011;36346;48.280;14.292;2023-06-22T03:02:48;3.94;;;3.92;;
50417;SDS011;36346;48.280;14.292;2023-06-22T03:05:18;3.82;;;3.80;;
50417;SDS011;36346;48.280;14.292;2023-06-22T03:07:47;3.92;;;3.90;;
50417;SDS011;36346;48.280;14.292;2023-06-22T03:10:16;4.42;;;4.37;;
50417;SDS011;36346;48.280;14.292;2023-06-22T03:12:44;4.06;;;4.02;;
50417;SDS011;36346;48.280;14.292;2023-06-22T03:15:12;4.39;;;4.36;;
50417;SDS011;36346;48.280;14.292;2023-06-22T03:17:40;4.65;;;4.63;;
50417;SDS011;36346;48.280;14.292;2023-06-22T03:20:09;5.24;;;5.22;;
50417;SDS011;36346;48.280;14.292;2023-06-22T03:22:39;4.61;;;4.58;;
50417;SDS011;36346;48.280;14.292;2023-06-22T03:25:08;4.99;;;4.95;;
50417;SDS011;36346;48.280;14.292;2023-06-22T03:27:46;5.20;;;5.15;;
50417;SDS011;36346;48.280;14.292;2023-06-22T03:30:15;4.63;;;4.58;;
50417;SDS011;36346;48.280;14.292;2023-06-22T03:32:45;5.07;;;5.01;;
50417;SDS011;36346;48.280;14.292;2023-06-22T03:35:14;4.77;;;4.74;;
50417;SDS011;36346;48.280;14.292;2023-06-22T03:37:42;5.02;;;4.99;;
50417;SDS011;36346;48.280;14.292;2023-06-22T03:40:10;4.97;;;4.91;;
50417;SDS011;36346;48.280;14.292;2023-06-22T03:42:40;4.99;;;4.92;;
50417;SDS011;36346;48.280;14.292;2023-06-22T03:45:09;5.08;;;5.00;;
50417;SDS011;36346;48.280;14.292;2023-06-22T03:47:37;5.07;;;5.00;;
50417;SDS011;36346;48.280;14.292;2023-06-22T03:50:06;4.94;;;4.90;;
50417;SDS011;36346;48.280;14.292;2023-06-22T03:52:34;5.49;;;5.46;;
50417;SDS011;36346;48.280;14.292;2023-06-22T03:55:02;5.23;;;5.20;;
50417;SDS011;36346;48.280;14.292;2023-06-22T03:57:32;5.43;;;5.38;;
50417;SDS011;36346;48.280;14.292;2023-06-22T04:00:00;5.51;;;5.48;;
50417;SDS011;36346;48.280;14.292;2023-06-22T04:02:39;5.83;;;5.80;;
50417;SDS011;36346;48.280;14.292;2023-06-22T04:05:08;6.45;;;6.41;;
50417;SDS011;36346;48.280;14.292;2023-06-22T04:07:37;6.57;;;6.57;;
50417;SDS011;36346;48.280;14.292;2023-06-22T04:10:05;6.77;;;6.77;;
50417;SDS011;36346;48.280;14.292;2023-06-22T04:12:33;5.53;;;5.53;;
50417;SDS011;36346;48.280;14.292;2023-06-22T04:15:01;5.80;;;5.79;;
50417;SDS011;36346;48.280;14.292;2023-06-22T04:17:29;5.63;;;5.61;;
50417;SDS011;36346;48.280;14.292;2023-06-22T04:19:57;6.03;;;5.98;;
50417;SDS011;36346;48.280;14.292;2023-06-22T04:22:25;6.84;;;6.79;;
50417;SDS011;36346;48.280;14.292;2023-06-22T04:24:53;6.20;;;6.17;;
50417;SDS011;36346;48.280;14.292;2023-06-22T04:27:21;5.53;;;5.52;;
50417;SDS011;36346;48.280;14.292;2023-06-22T04:29:50;9.84;;;9.77;;
50417;SDS011;36346;48.280;14.292;2023-06-22T04:32:18;9.30;;;9.24;;
50417;SDS011;36346;48.280;14.292;2023-06-22T04:34:46;7.52;;;7.51;;
50417;SDS011;36346;48.280;14.292;2023-06-22T04:37:14;5.91;;;5.91;;
50417;SDS011;36346;48.280;14.292;2023-06-22T04:39:43;5.42;;;5.40;;
50417;SDS011;36346;48.280;14.292;2023-06-22T04:42:11;5.42;;;5.41;;
50417;SDS011;36346;48.280;14.292;2023-06-22T04:44:40;5.24;;;5.21;;
50417;SDS011;36346;48.280;14.292;2023-06-22T04:47:09;4.70;;;4.68;;
50417;SDS011;36346;48.280;14.292;2023-06-22T04:49:37;4.83;;;4.79;;
50417;SDS011;36346;48.280;14.292;2023-06-22T04:52:08;4.90;;;4.82;;
50417;SDS011;36346;48.280;14.292;2023-06-22T04:54:38;5.26;;;5.20;;
50417;SDS011;36346;48.280;14.292;2023-06-22T04:57:08;5.63;;;5.57;;
50417;SDS011;36346;48.280;14.292;2023-06-22T04:59:39;5.45;;;5.37;;
50417;SDS011;36346;48.280;14.292;2023-06-22T05:02:09;5.99;;;5.88;;
50417;SDS011;36346;48.280;14.292;2023-06-22T05:04:37;6.04;;;5.96;;
50417;SDS011;36346;48.280;14.292;2023-06-22T05:07:07;5.76;;;5.67;;
50417;SDS011;36346;48.280;14.292;2023-06-22T05:09:35;6.59;;;6.44;;
50417;SDS011;36346;48.280;14.292;2023-06-22T05:12:03;6.03;;;5.97;;
50417;SDS011;36346;48.280;14.292;2023-06-22T05:14:35;18.48;;;18.32;;
50417;SDS011;36346;48.280;14.292;2023-06-22T05:17:03;11.60;;;11.52;;
50417;SDS011;36346;48.280;14.292;2023-06-22T05:19:31;7.48;;;7.43;;
50417;SDS011;36346;48.280;14.292;2023-06-22T05:22:01;5.81;;;5.75;;
50417;SDS011;36346;48.280;14.292;2023-06-22T05:24:29;5.83;;;5.79;;
50417;SDS011;36346;48.280;14.292;2023-06-22T05:26:57;6.39;;;6.38;;
50417;SDS011;36346;48.280;14.292;2023-06-22T05:29:25;7.32;;;7.29;;
50417;SDS011;36346;48.280;14.292;2023-06-22T05:31:54;6.79;;;6.73;;
50417;SDS011;36346;48.280;14.292;2023-06-22T05:34:22;7.01;;;6.97;;
50417;SDS011;36346;48.280;14.292;2023-06-22T05:36:50;6.74;;;6.71;;
50417;SDS011;36346;48.280;14.292;2023-06-22T05:39:17;6.11;;;6.08;;
50417;SDS011;36346;48.280;14.292;2023-06-22T05:41:45;5.65;;;5.62;;
50417;SDS011;36346;48.280;14.292;2023-06-22T05:44:14;5.73;;;5.70;;
50417;SDS011;36346;48.280;14.292;2023-06-22T05:46:42;5.99;;;5.95;;
50417;SDS011;36346;48.280;14.292;2023-06-22T05:49:12;5.61;;;5.59;;
50417;SDS011;36346;48.280;14.292;2023-06-22T05:51:40;5.97;;;5.91;;
50417;SDS011;36346;48.280;14.292;2023-06-22T05:54:08;5.99;;;5.88;;
50417;SDS011;36346;48.280;14.292;2023-06-22T05:56:37;5.93;;;5.87;;
50417;SDS011;36346;48.280;14.292;2023-06-22T05:59:05;6.06;;;6.04;;
50417;SDS011;36346;48.280;14.292;2023-06-22T06:01:33;6.03;;;6.00;;
50417;SDS011;36346;48.280;14.292;2023-06-22T06:04:03;5.67;;;5.63;;
50417;SDS011;36346;48.280;14.292;2023-06-22T06:06:32;6.72;;;6.72;;
50417;SDS011;36346;48.280;14.292;2023-06-22T06:09:05;10.64;;;10.63;;
50417;SDS011;36346;48.280;14.292;2023-06-22T06:11:33;7.28;;;7.27;;
50417;SDS011;36346;48.280;14.292;2023-06-22T06:14:01;6.02;;;6.01;;
50417;SDS011;36346;48.280;14.292;2023-06-22T06:16:29;5.86;;;5.86;;
50417;SDS011;36346;48.280;14.292;2023-06-22T06:18:57;5.47;;;5.47;;
50417;SDS011;36346;48.280;14.292;2023-06-22T06:21:26;5.51;;;5.51;;
50417;SDS011;36346;48.280;14.292;2023-06-22T06:23:57;5.64;;;5.63;;
50417;SDS011;36346;48.280;14.292;2023-06-22T06:26:26;6.09;;;6.07;;
50417;SDS011;36346;48.280;14.292;2023-06-22T06:29:00;6.38;;;6.35;;
50417;SDS011;36346;48.280;14.292;2023-06-22T06:31:29;5.79;;;5.77;;
50417;SDS011;36346;48.280;14.292;2023-06-22T06:33:58;9.41;;;9.41;;
50417;SDS011;36346;48.280;14.292;2023-06-22T06:36:26;6.99;;;6.99;;
50417;SDS011;36346;48.280;14.292;2023-06-22T06:38:54;7.43;;;7.42;;
50417;SDS011;36346;48.280;14.292;2023-06-22T06:41:22;6.28;;;6.24;;
50417;SDS011;36346;48.280;14.292;2023-06-22T06:43:50;6.59;;;6.56;;
50417;SDS011;36346;48.280;14.292;2023-06-22T06:46:19;6.32;;;6.30;;
50417;SDS011;36346;48.280;14.292;2023-06-22T06:48:47;5.93;;;5.93;;
50417;SDS011;36346;48.280;14.292;2023-06-22T06:51:15;6.30;;;6.30;;
50417;SDS011;36346;48.280;14.292;2023-06-22T06:53:43;6.40;;;6.40;;
50417;SDS011;36346;48.280;14.292;2023-06-22T06:56:11;6.16;;;6.16;;
50417;SDS011;36346;48.280;14.292;2023-06-22T06:58:41;5.76;;;5.76;;
50417;SDS011;36346;48.280;14.292;2023-06-22T07:01:10;5.65;;;5.53;;
50417;SDS011;36346;48.280;14.292;2023-06-22T07:03:38;7.03;;;6.92;;
50417;SDS011;36346;48.280;14.292;2023-06-22T07:06:07;19.77;;;19.70;;
50417;SDS011;36346;48.280;14.292;2023-06-22T07:08:36;6.72;;;6.70;;
50417;SDS011;36346;48.280;14.292;2023-06-22T07:11:04;8.43;;;8.36;;
50417;SDS011;36346;48.280;14.292;2023-06-22T07:13:32;10.55;;;10.20;;
50417;SDS011;36346;48.280;14.292;2023-06-22T07:16:01;9.60;;;9.16;;
50417;SDS011;36346;48.280;14.292;2023-06-22T07:18:29;6.78;;;6.57;;
50417;SDS011;36346;48.280;14.292;2023-06-22T07:20:58;6.81;;;6.64;;
50417;SDS011;36346;48.280;14.292;2023-06-22T07:23:26;6.89;;;6.80;;
50417;SDS011;36346;48.280;14.292;2023-06-22T07:25:53;8.19;;;7.85;;
50417;SDS011;36346;48.280;14.292;2023-06-22T07:28:21;5.93;;;5.73;;
50417;SDS011;36346;48.280;14.292;2023-06-22T07:30:49;10.03;;;9.98;;
50417;SDS011;36346;48.280;14.292;2023-06-22T07:33:19;7.06;;;7.02;;
50417;SDS011;36346;48.280;14.292;2023-06-22T07:35:47;8.18;;;8.11;;
50417;SDS011;36346;48.280;14.292;2023-06-22T07:38:16;6.16;;;6.13;;
50417;SDS011;36346;48.280;14.292;2023-06-22T07:40:44;6.96;;;6.96;;
50417;SDS011;36346;48.280;14.292;2023-06-22T07:43:12;7.97;;;7.71;;
50417;SDS011;36346;48.280;14.292;2023-06-22T07:45:40;7.79;;;7.63;;
50417;SDS011;36346;48.280;14.292;2023-06-22T07:48:09;8.25;;;8.24;;
50417;SDS011;36346;48.280;14.292;2023-06-22T07:50:37;8.93;;;8.71;;
50417;SDS011;36346;48.280;14.292;2023-06-22T07:53:05;17.13;;;17.11;;
50417;SDS011;36346;48.280;14.292;2023-06-22T07:55:33;9.15;;;9.12;;
50417;SDS011;36346;48.280;14.292;2023-06-22T07:58:01;6.81;;;6.72;;
50417;SDS011;36346;48.280;14.292;2023-06-22T08:00:29;6.58;;;6.56;;
50417;SDS011;36346;48.280;14.292;2023-06-22T08:02:57;12.99;;;12.97;;
50417;SDS011;36346;48.280;14.292;2023-06-22T08:05:25;8.53;;;8.53;;
50417;SDS011;36346;48.280;14.292;2023-06-22T08:07:53;20.70;;;20.70;;
50417;SDS011;36346;48.280;14.292;2023-06-22T08:10:22;11.71;;;11.71;;
50417;SDS011;36346;48.280;14.292;2023-06-22T08:12:51;15.42;;;15.42;;
50417;SDS011;36346;48.280;14.292;2023-06-22T08:15:20;23.41;;;23.41;;
50417;SDS011;36346;48.280;14.292;2023-06-22T08:17:49;7.75;;;7.75;;
50417;SDS011;36346;48.280;14.292;2023-06-22T08:20:17;10.16;;;10.16;;
50417;SDS011;36346;48.280;14.292;2023-06-22T08:22:45;13.59;;;13.59;;
50417;SDS011;36346;48.280;14.292;2023-06-22T08:25:13;18.03;;;18.03;;
50417;SDS011;36346;48.280;14.292;2023-06-22T08:27:44;16.81;;;16.81;;
50417;SDS011;36346;48.280;14.292;2023-06-22T08:30:14;16.51;;;16.51;;
50417;SDS011;36346;48.280;14.292;2023-06-22T08:32:43;7.67;;;7.67;;
50417;SDS011;36346;48.280;14.292;2023-06-22T08:35:11;6.84;;;6.81;;
50417;SDS011;36346;48.280;14.292;2023-06-22T08:37:39;6.64;;;6.59;;
50417;SDS011;36346;48.280;14.292;2023-06-22T08:40:08;8.80;;;8.77;;
50417;SDS011;36346;48.280;14.292;2023-06-22T08:42:40;24.60;;;24.59;;
50417;SDS011;36346;48.280;14.292;2023-06-22T08:45:09;23.63;;;23.63;;
50417;SDS011;36346;48.280;14.292;2023-06-22T08:47:38;14.29;;;14.27;;
50417;SDS011;36346;48.280;14.292;2023-06-22T08:50:06;21.16;;;21.12;;
50417;SDS011;36346;48.280;14.292;2023-06-22T08:52:36;15.47;;;15.45;;
50417;SDS011;36346;48.280;14.292;2023-06-22T08:55:05;7.19;;;7.19;;
50417;SDS011;36346;48.280;14.292;2023-06-22T08:57:33;7.09;;;7.09;;
50417;SDS011;36346;48.280;14.292;2023-06-22T09:00:02;6.14;;;6.14;;
50417;SDS011;36346;48.280;14.292;2023-06-22T09:02:32;5.34;;;5.34;;
50417;SDS011;36346;48.280;14.292;2023-06-22T09:05:03;5.86;;;5.86;;
50417;SDS011;36346;48.280;14.292;2023-06-22T09:07:32;7.60;;;7.60;;
50417;SDS011;36346;48.280;14.292;2023-06-22T09:10:02;8.96;;;8.96;;
50417;SDS011;36346;48.280;14.292;2023-06-22T09:12:32;5.53;;;5.53;;
50417;SDS011;36346;48.280;14.292;2023-06-22T09:15:02;11.43;;;11.42;;
50417;SDS011;36346;48.280;14.292;2023-06-22T09:17:32;11.65;;;11.63;;
50417;SDS011;36346;48.280;14.292;2023-06-22T09:20:01;11.57;;;11.57;;
50417;SDS011;36346;48.280;14.292;2023-06-22T09:22:29;12.53;;;12.53;;
50417;SDS011;36346;48.280;14.292;2023-06-22T09:24:58;6.17;;;6.17;;
50417;SDS011;36346;48.280;14.292;2023-06-22T09:27:27;7.71;;;7.71;;
50417;SDS011;36346;48.280;14.292;2023-06-22T09:29:55;7.37;;;7.37;;
50417;SDS011;36346;48.280;14.292;2023-06-22T09:32:25;9.36;;;9.36;;
50417;SDS011;36346;48.280;14.292;2023-06-22T09:34:53;11.74;;;11.74;;
50417;SDS011;36346;48.280;14.292;2023-06-22T09:37:21;14.31;;;14.31;;
50417;SDS011;36346;48.280;14.292;2023-06-22T09:39:49;9.95;;;9.95;;
50417;SDS011;36346;48.280;14.292;2023-06-22T09:42:17;5.99;;;5.99;;
50417;SDS011;36346;48.280;14.292;2023-06-22T09:44:45;10.71;;;10.71;;
50417;SDS011;36346;48.280;14.292;2023-06-22T09:47:13;7.90;;;7.90;;
50417;SDS011;36346;48.280;14.292;2023-06-22T09:49:41;7.09;;;7.09;;
50417;SDS011;36346;48.280;14.292;2023-06-22T09:52:15;5.61;;;5.60;;
50417;SDS011;36346;48.280;14.292;2023-06-22T09:54:43;10.04;;;10.04;;
50417;SDS011;36346;48.280;14.292;2023-06-22T09:57:11;11.08;;;11.08;;
50417;SDS011;36346;48.280;14.292;2023-06-22T09:59:39;12.37;;;12.37;;
50417;SDS011;36346;48.280;14.292;2023-06-22T10:02:10;9.49;;;9.49;;
50417;SDS011;36346;48.280;14.292;2023-06-22T10:04:38;7.56;;;7.56;;
50417;SDS011;36346;48.280;14.292;2023-06-22T10:07:08;9.14;;;9.14;;
50417;SDS011;36346;48.280;14.292;2023-06-22T10:09:36;12.28;;;12.28;;
50417;SDS011;36346;48.280;14.292;2023-06-22T10:12:04;8.33;;;8.33;;
50417;SDS011;36346;48.280;14.292;2023-06-22T10:14:32;5.29;;;5.29;;
50417;SDS011;36346;48.280;14.292;2023-06-22T10:17:00;5.68;;;5.68;;
50417;SDS011;36346;48.280;14.292;2023-06-22T10:19:27;5.41;;;5.41;;
50417;SDS011;36346;48.280;14.292;2023-06-22T10:21:55;5.47;;;5.46;;
50417;SDS011;36346;48.280;14.292;2023-06-22T10:24:23;5.49;;;5.49;;
50417;SDS011;36346;48.280;14.292;2023-06-22T10:26:51;6.14;;;6.13;;
50417;SDS011;36346;48.280;14.292;2023-06-22T10:29:19;5.73;;;5.73;;
50417;SDS011;36346;48.280;14.292;2023-06-22T10:31:47;5.45;;;5.45;;
50417;SDS011;36346;48.280;14.292;2023-06-22T10:34:15;5.46;;;5.46;;
50417;SDS011;36346;48.280;14.292;2023-06-22T10:36:43;5.26;;;5.26;;
50417;SDS011;36346;48.280;14.292;2023-06-22T10:39:13;5.51;;;5.51;;
50417;SDS011;36346;48.280;14.292;2023-06-22T10:41:42;5.88;;;5.88;;
50417;SDS011;36346;48.280;14.292;2023-06-22T10:44:10;5.63;;;5.63;;
50417;SDS011;36346;48.280;14.292;2023-06-22T10:46:39;6.02;;;6.02;;
50417;SDS011;36346;48.280;14.292;2023-06-22T10:49:07;6.45;;;6.45;;
50417;SDS011;36346;48.280;14.292;2023-06-22T10:51:35;5.65;;;5.65;;
50417;SDS011;36346;48.280;14.292;2023-06-22T10:54:03;5.84;;;5.84;;
50417;SDS011;36346;48.280;14.292;2023-06-22T10:56:32;5.98;;;5.98;;
50417;SDS011;36346;48.280;14.292;2023-06-22T10:59:01;6.09;;;6.09;;
50417;SDS011;36346;48.280;14.292;2023-06-22T11:01:29;5.76;;;5.76;;
50417;SDS011;36346;48.280;14.292;2023-06-22T11:04:03;6.16;;;6.16;;
50417;SDS011;36346;48.280;14.292;2023-06-22T11:06:32;6.13;;;6.13;;
50417;SDS011;36346;48.280;14.292;2023-06-22T11:09:01;6.06;;;6.05;;
50417;SDS011;36346;48.280;14.292;2023-06-22T11:11:50;5.43;;;5.43;;
50417;SDS011;36346;48.280;14.292;2023-06-22T11:14:21;6.10;;;6.10;;
50417;SDS011;36346;48.280;14.292;2023-06-22T11:16:49;5.60;;;5.60;;
50417;SDS011;36346;48.280;14.292;2023-06-22T11:19:19;6.14;;;6.14;;
50417;SDS011;36346;48.280;14.292;2023-06-22T11:21:47;5.96;;;5.96;;
50417;SDS011;36346;48.280;14.292;2023-06-22T11:24:16;5.82;;;5.82;;
50417;SDS011;36346;48.280;14.292;2023-06-22T11:26:44;6.42;;;6.42;;
50417;SDS011;36346;48.280;14.292;2023-06-22T11:29:12;6.40;;;6.37;;
50417;SDS011;36346;48.280;14.292;2023-06-22T11:31:58;5.86;;;5.86;;
50417;SDS011;36346;48.280;14.292;2023-06-22T11:34:26;6.18;;;6.18;;
50417;SDS011;36346;48.280;14.292;2023-06-22T11:36:55;6.28;;;6.28;;
50417;SDS011;36346;48.280;14.292;2023-06-22T11:39:23;5.53;;;5.53;;
50417;SDS011;36346;48.280;14.292;2023-06-22T11:42:07;5.76;;;5.76;;
50417;SDS011;36346;48.280;14.292;2023-06-22T11:44:36;6.63;;;6.63;;
50417;SDS011;36346;48.280;14.292;2023-06-22T11:47:04;6.98;;;6.97;;
50417;SDS011;36346;48.280;14.292;2023-06-22T11:49:33;6.36;;;6.36;;
50417;SDS011;36346;48.280;14.292;2023-06-22T11:52:00;7.33;;;7.21;;
50417;SDS011;36346;48.280;14.292;2023-06-22T11:54:28;7.01;;;6.94;;
50417;SDS011;36346;48.280;14.292;2023-06-22T11:56:56;6.22;;;6.22;;
50417;SDS011;36346;48.280;14.292;2023-06-22T11:59:24;6.15;;;6.15;;
50417;SDS011;36346;48.280;14.292;2023-06-22T12:01:52;6.14;;;6.13;;
50417;SDS011;36346;48.280;14.292;2023-06-22T12:04:21;6.97;;;6.95;;
50417;SDS011;36346;48.280;14.292;2023-06-22T12:06:49;6.71;;;6.71;;
50417;SDS011;36346;48.280;14.292;2023-06-22T12:09:16;6.88;;;6.88;;
50417;SDS011;36346;48.280;14.292;2023-06-22T12:11:44;7.08;;;7.07;;
50417;SDS011;36346;48.280;14.292;2023-06-22T12:14:12;7.31;;;7.27;;
50417;SDS011;36346;48.280;14.292;2023-06-22T12:16:40;6.26;;;6.26;;
50417;SDS011;36346;48.280;14.292;2023-06-22T12:19:08;6.46;;;6.46;;
50417;SDS011;36346;48.280;14.292;2023-06-22T12:21:37;6.92;;;6.92;;
50417;SDS011;36346;48.280;14.292;2023-06-22T12:24:05;7.39;;;7.39;;
50417;SDS011;36346;48.280;14.292;2023-06-22T12:26:33;7.06;;;7.06;;
50417;SDS011;36346;48.280;14.292;2023-06-22T12:29:00;7.08;;;7.08;;
50417;SDS011;36346;48.280;14.292;2023-06-22T12:31:28;6.84;;;6.84;;
50417;SDS011;36346;48.280;14.292;2023-06-22T12:33:56;6.64;;;6.64;;
50417;SDS011;36346;48.280;14.292;2023-06-22T12:36:24;6.67;;;6.67;;
50417;SDS011;36346;48.280;14.292;2023-06-22T12:38:52;6.67;;;6.67;;
50417;SDS011;36346;48.280;14.292;2023-06-22T12:41:22;7.23;;;7.23;;
50417;SDS011;36346;48.280;14.292;2023-06-22T12:43:50;6.86;;;6.86;;
50417;SDS011;36346;48.280;14.292;2023-06-22T12:46:18;6.47;;;6.46;;
50417;SDS011;36346;48.280;14.292;2023-06-22T12:48:46;6.68;;;6.61;;
50417;SDS011;36346;48.280;14.292;2023-06-22T12:51:21;6.50;;;6.50;;
50417;SDS011;36346;48.280;14.292;2023-06-22T12:53:50;6.31;;;6.30;;
50417;SDS011;36346;48.280;14.292;2023-06-22T12:56:18;6.58;;;6.58;;
50417;SDS011;36346;48.280;14.292;2023-06-22T12:58:46;6.61;;;6.61;;
50417;SDS011;36346;48.280;14.292;2023-06-22T13:01:14;10.85;;;10.84;;
50417;SDS011;36346;48.280;14.292;2023-06-22T13:03:42;22.52;;;22.52;;
50417;SDS011;36346;48.280;14.292;2023-06-22T13:06:10;7.47;;;7.45;;
50417;SDS011;36346;48.280;14.292;2023-06-22T13:08:38;7.07;;;7.04;;
50417;SDS011;36346;48.280;14.292;2023-06-22T13:11:09;7.63;;;7.62;;
50417;SDS011;36346;48.280;14.292;2023-06-22T13:13:37;7.41;;;7.41;;
50417;SDS011;36346;48.280;14.292;2023-06-22T13:16:06;7.04;;;7.02;;
50417;SDS011;36346;48.280;14.292;2023-06-22T13:18:34;6.22;;;6.22;;
50417;SDS011;36346;48.280;14.292;2023-06-22T13:21:03;6.80;;;6.80;;
50417;SDS011;36346;48.280;14.292;2023-06-22T13:23:31;6.72;;;6.72;;
50417;SDS011;36346;48.280;14.292;2023-06-22T13:25:59;6.61;;;6.61;;
50417;SDS011;36346;48.280;14.292;2023-06-22T13:28:28;6.85;;;6.85;;
50417;SDS011;36346;48.280;14.292;2023-06-22T13:30:57;6.72;;;6.72;;
50417;SDS011;36346;48.280;14.292;2023-06-22T13:33:25;6.50;;;6.50;;
50417;SDS011;36346;48.280;14.292;2023-06-22T13:35:53;6.87;;;6.87;;
50417;SDS011;36346;48.280;14.292;2023-06-22T13:38:22;6.81;;;6.81;;
50417;SDS011;36346;48.280;14.292;2023-06-22T13:40:50;7.27;;;7.26;;
50417;SDS011;36346;48.280;14.292;2023-06-22T13:43:18;6.83;;;6.83;;
50417;SDS011;36346;48.280;14.292;2023-06-22T13:45:46;7.24;;;7.24;;
50417;SDS011;36346;48.280;14.292;2023-06-22T13:48:14;7.11;;;7.11;;
50417;SDS011;36346;48.280;14.292;2023-06-22T13:50:42;6.77;;;6.77;;
50417;SDS011;36346;48.280;14.292;2023-06-22T13:53:11;6.91;;;6.91;;
50417;SDS011;36346;48.280;14.292;2023-06-22T13:55:39;6.95;;;6.95;;
50417;SDS011;36346;48.280;14.292;2023-06-22T13:58:07;7.14;;;7.14;;
50417;SDS011;36346;48.280;14.292;2023-06-22T14:00:37;7.30;;;7.30;;
50417;SDS011;36346;48.280;14.292;2023-06-22T14:03:05;7.82;;;7.82;;
50417;SDS011;36346;48.280;14.292;2023-06-22T14:05:33;7.32;;;7.31;;
50417;SDS011;36346;48.280;14.292;2023-06-22T14:08:01;7.76;;;7.76;;
50417;SDS011;36346;48.280;14.292;2023-06-22T14:10:35;8.24;;;8.24;;
50417;SDS011;36346;48.280;14.292;2023-06-22T14:13:03;8.25;;;8.25;;
50417;SDS011;36346;48.280;14.292;2023-06-22T14:15:36;7.27;;;7.25;;
50417;SDS011;36346;48.280;14.292;2023-06-22T14:18:04;7.64;;;7.64;;
50417;SDS011;36346;48.280;14.292;2023-06-22T14:20:32;6.96;;;6.96;;
50417;SDS011;36346;48.280;14.292;2023-06-22T14:23:00;7.47;;;7.47;;
50417;SDS011;36346;48.280;14.292;2023-06-22T14:25:28;7.31;;;7.31;;
50417;SDS011;36346;48.280;14.292;2023-06-22T14:27:56;7.07;;;7.07;;
50417;SDS011;36346;48.280;14.292;2023-06-22T14:30:24;7.40;;;7.40;;
50417;SDS011;36346;48.280;14.292;2023-06-22T14:32:52;7.90;;;7.90;;
50417;SDS011;36346;48.280;14.292;2023-06-22T14:35:20;7.92;;;7.92;;
50417;SDS011;36346;48.280;14.292;2023-06-22T14:37:48;7.84;;;7.84;;
50417;SDS011;36346;48.280;14.292;2023-06-22T14:40:17;7.87;;;7.87;;
50417;SDS011;36346;48.280;14.292;2023-06-22T14:42:45;7.77;;;7.77;;
50417;SDS011;36346;48.280;14.292;2023-06-22T14:45:13;8.04;;;8.04;;
50417;SDS011;36346;48.280;14.292;2023-06-22T14:47:41;8.90;;;8.90;;
50417;SDS011;36346;48.280;14.292;2023-06-22T14:50:09;8.48;;;8.48;;
50417;SDS011;36346;48.280;14.292;2023-06-22T14:52:37;9.33;;;9.33;;
50417;SDS011;36346;48.280;14.292;2023-06-22T14:55:05;8.82;;;8.82;;
50417;SDS011;36346;48.280;14.292;2023-06-22T14:57:33;8.90;;;8.90;;